Terminal Aerodrome Forecast
Issued by NWS Shreveport, LA

Home | Current Version | Previous Version | Text Only | Print | Product List | Glossary On
Versions: 1 2 3 4 5 6 7 8 9 10 11 12 13 14 15 16
188
FTUS44 KSHV 271145
TAFSHV
TAF
KSHV 271145Z 2712/2812 VRB03KT P6SM SCT004 SCT130 SCT250
      TEMPO 2713/2715 BKN006
     FM271500 10005KT P6SM SCT012 SCT250
     FM271700 10006KT P6SM SCT025 SCT250
     FM271900 10006KT P6SM SCT040 SCT250
     FM280100 11004KT P6SM SCT050 SCT120 BKN250
     FM280600 VRB03KT P6SM FEW045 BKN120 OVC250=

USA.gov is the U.S. government's official web portal to all federal, state and local government web resources and services.